Time;durP1;ratioP1;P1;durP2;ratioP2;P2;SDS_P1;SDS_P2;PMS_P1;PMS_P2;Temp;Humidity;BMP_temperature;BMP_pressure;BME280_temperature;BME280_humidity;BME280_pressure;Samples;Min_cycle;Max_cycle;Signal;HPM_P1;HPM_P2
2023/06/30 00:00:25;;;;;;;11.98;4.53;;;;;;;;;;4977841;28;20053;-96
2023/06/30 00:02:51;;;;;;;16.45;4.50;;;;;;;;;;4988247;28;20492;-95
2023/06/30 00:05:21;;;;;;;16.98;4.68;;;;;;;;;;4976710;28;20033;-93
2023/06/30 00:07:47;;;;;;;19.23;4.00;;;;;;;;;;4991803;28;20116;-95
2023/06/30 00:10:16;;;;;;;15.25;5.30;;;;;;;;;;4971514;28;20156;-96
2023/06/30 00:12:43;;;;;;;14.77;4.90;;;;;;;;;;4982717;28;20029;-95
2023/06/30 00:15:12;;;;;;;11.15;5.00;;;;;;;;;;4975107;28;20060;-95
2023/06/30 00:17:39;;;;;;;12.30;4.22;;;;;;;;;;4995358;28;20038;-94
2023/06/30 00:20:06;;;;;;;18.33;4.35;;;;;;;;;;4992877;28;20092;-94
2023/06/30 00:22:42;;;;;;;12.00;4.25;;;;;;;;;;4998501;28;20248;-95
2023/06/30 00:25:08;;;;;;;18.15;3.97;;;;;;;;;;4977909;28;20550;-95
2023/06/30 00:27:35;;;;;;;15.88;4.07;;;;;;;;;;4980616;28;20025;-96
2023/06/30 00:30:04;;;;;;;6.55;3.67;;;;;;;;;;4979810;28;20038;-95
2023/06/30 00:32:34;;;;;;;10.27;3.72;;;;;;;;;;4974734;28;20324;-96
2023/06/30 00:35:00;;;;;;;12.25;3.75;;;;;;;;;;4977108;28;20042;-96
2023/06/30 00:37:32;;;;;;;6.93;3.78;;;;;;;;;;4990949;28;20026;-95
2023/06/30 00:39:58;;;;;;;15.20;3.92;;;;;;;;;;4971880;28;20128;-93
2023/06/30 00:42:24;;;;;;;13.88;4.78;;;;;;;;;;4984063;28;20026;-94
2023/06/30 00:44:53;;;;;;;14.68;4.00;;;;;;;;;;4997342;28;20512;-96
2023/06/30 00:47:19;;;;;;;12.80;4.35;;;;;;;;;;4969709;28;20347;-95
2023/06/30 00:49:49;;;;;;;7.75;3.60;;;;;;;;;;4987906;28;20506;-95
2023/06/30 00:52:15;;;;;;;15.43;3.58;;;;;;;;;;4997802;28;20378;-95
2023/06/30 00:54:41;;;;;;;21.67;4.18;;;;;;;;;;4978246;28;20038;-94
2023/06/30 00:57:07;;;;;;;9.13;4.15;;;;;;;;;;4974611;28;20042;-95
2023/06/30 00:59:33;;;;;;;12.63;3.67;;;;;;;;;;4981548;28;20064;-95
2023/06/30 01:02:04;;;;;;;10.05;3.70;;;;;;;;;;4969003;28;20053;-94
2023/06/30 01:04:54;;;;;;;10.43;3.50;;;;;;;;;;4983490;28;20581;-94
2023/06/30 01:07:24;;;;;;;8.55;3.90;;;;;;;;;;5008094;28;20152;-92
2023/06/30 01:10:04;;;;;;;9.07;3.33;;;;;;;;;;4995042;28;20026;-96
2023/06/30 01:12:30;;;;;;;11.63;3.75;;;;;;;;;;4988521;28;20286;-94
2023/06/30 01:14:57;;;;;;;11.88;4.28;;;;;;;;;;4993748;28;20501;-94
2023/06/30 01:17:30;;;;;;;11.32;3.30;;;;;;;;;;5003715;28;20052;-94
2023/06/30 01:19:56;;;;;;;13.32;3.45;;;;;;;;;;4978331;28;20057;-95
2023/06/30 01:22:28;;;;;;;6.88;3.25;;;;;;;;;;4991731;28;20029;-94
2023/06/30 01:25:02;;;;;;;13.07;3.78;;;;;;;;;;5006724;28;20093;-95
2023/06/30 01:27:31;;;;;;;11.45;3.60;;;;;;;;;;4994051;28;20075;-93
2023/06/30 01:30:05;;;;;;;16.88;4.68;;;;;;;;;;4981547;28;20498;-94
2023/06/30 01:32:32;;;;;;;10.35;3.70;;;;;;;;;;4995425;28;20596;-94
2023/06/30 01:34:58;;;;;;;9.75;3.70;;;;;;;;;;4990506;28;20049;-95
2023/06/30 01:37:30;;;;;;;10.85;4.03;;;;;;;;;;4977937;28;20037;-95
2023/06/30 01:42:44;;;;;;;8.68;3.60;;;;;;;;;;4991977;28;20045;-96
2023/06/30 01:45:34;;;;;;;12.18;4.00;;;;;;;;;;4993560;28;20022;-95
2023/06/30 01:48:02;;;;;;;15.38;3.58;;;;;;;;;;4988584;28;20061;-95
2023/06/30 01:50:31;;;;;;;16.50;3.88;;;;;;;;;;4990045;28;20030;-96
2023/06/30 01:52:58;;;;;;;11.45;3.83;;;;;;;;;;4997258;28;20038;-95
2023/06/30 01:55:37;;;;;;;10.40;3.28;;;;;;;;;;4995746;28;20030;-95
2023/06/30 01:58:05;;;;;;;8.52;3.78;;;;;;;;;;4984069;28;20052;-94
2023/06/30 02:00:50;;;;;;;15.27;3.60;;;;;;;;;;4992242;28;20034;-95
2023/06/30 02:03:26;;;;;;;20.67;4.03;;;;;;;;;;4993360;28;20033;-95
2023/06/30 02:05:59;;;;;;;14.00;3.92;;;;;;;;;;4996055;28;20034;-95
2023/06/30 02:08:26;;;;;;;12.75;4.40;;;;;;;;;;4977363;28;20627;-95
2023/06/30 02:10:52;;;;;;;15.38;3.90;;;;;;;;;;4981146;28;20041;-95
2023/06/30 02:13:25;;;;;;;14.02;4.20;;;;;;;;;;4993588;28;20097;-94
2023/06/30 02:15:51;;;;;;;14.88;3.53;;;;;;;;;;4998324;28;20093;-95
2023/06/30 02:18:18;;;;;;;13.95;3.67;;;;;;;;;;4987018;28;20109;-94
2023/06/30 02:20:45;;;;;;;19.13;5.95;;;;;;;;;;4986370;28;20034;-95
2023/06/30 02:23:11;;;;;;;11.55;3.50;;;;;;;;;;4977987;28;20030;-94
2023/06/30 02:25:37;;;;;;;11.05;3.88;;;;;;;;;;4984106;28;20062;-93
2023/06/30 02:28:04;;;;;;;18.10;4.35;;;;;;;;;;4984177;28;20034;-94
2023/06/30 02:30:33;;;;;;;11.68;3.50;;;;;;;;;;5001907;28;20113;-95
2023/06/30 02:33:00;;;;;;;12.23;3.65;;;;;;;;;;4983863;28;20030;-96
2023/06/30 02:35:26;;;;;;;11.85;3.42;;;;;;;;;;4983229;28;20049;-95
2023/06/30 02:37:59;;;;;;;13.35;4.60;;;;;;;;;;4983071;28;20394;-95
2023/06/30 02:40:26;;;;;;;13.52;3.92;;;;;;;;;;5008022;28;20028;-95
2023/06/30 02:42:53;;;;;;;8.02;3.58;;;;;;;;;;4977501;28;20038;-95
2023/06/30 02:45:43;;;;;;;9.55;4.30;;;;;;;;;;4977776;28;20106;-94
2023/06/30 02:48:14;;;;;;;14.15;3.92;;;;;;;;;;5010014;28;20030;-96
2023/06/30 02:50:56;;;;;;;18.63;4.30;;;;;;;;;;4998089;28;20352;-96
2023/06/30 02:53:23;;;;;;;7.85;3.75;;;;;;;;;;4996318;28;20125;-96
2023/06/30 02:56:13;;;;;;;9.68;3.47;;;;;;;;;;4991313;28;20450;-95
2023/06/30 02:58:39;;;;;;;11.38;3.75;;;;;;;;;;4971421;28;20142;-96
2023/06/30 03:01:08;;;;;;;9.38;3.72;;;;;;;;;;4980067;28;20133;-95
2023/06/30 03:03:44;;;;;;;8.63;4.10;;;;;;;;;;4993411;28;20030;-96
2023/06/30 03:06:11;;;;;;;13.23;3.53;;;;;;;;;;4992138;28;20022;-96
2023/06/30 03:08:40;;;;;;;11.57;3.60;;;;;;;;;;4993758;28;20080;-95
2023/06/30 03:11:14;;;;;;;9.52;3.45;;;;;;;;;;4980554;28;20073;-96
2023/06/30 03:13:48;;;;;;;15.15;4.13;;;;;;;;;;4976677;28;20030;-96
2023/06/30 03:16:15;;;;;;;8.93;3.40;;;;;;;;;;4992095;28;20128;-96
2023/06/30 03:18:47;;;;;;;14.35;3.83;;;;;;;;;;4975340;28;20035;-95
2023/06/30 03:21:13;;;;;;;13.20;3.80;;;;;;;;;;4981178;28;20297;-96
2023/06/30 03:23:41;;;;;;;16.42;4.47;;;;;;;;;;4983957;28;20054;-95
2023/06/30 03:26:08;;;;;;;21.40;4.35;;;;;;;;;;4990753;28;20100;-95
2023/06/30 03:28:35;;;;;;;16.67;4.82;;;;;;;;;;4986460;28;20088;-96
2023/06/30 03:31:02;;;;;;;13.27;3.95;;;;;;;;;;4993493;28;20037;-96
2023/06/30 03:33:29;;;;;;;18.92;4.25;;;;;;;;;;4991411;28;20141;-96
2023/06/30 03:36:16;;;;;;;13.25;4.20;;;;;;;;;;4992151;28;20117;-96
2023/06/30 03:38:42;;;;;;;12.35;4.03;;;;;;;;;;4991506;28;20034;-96
2023/06/30 03:41:12;;;;;;;10.50;3.97;;;;;;;;;;4981558;28;20065;-96
2023/06/30 03:43:40;;;;;;;9.65;4.15;;;;;;;;;;4993264;28;20033;-96
2023/06/30 03:46:11;;;;;;;15.05;4.00;;;;;;;;;;4989927;28;20045;-96
2023/06/30 03:48:38;;;;;;;14.18;4.07;;;;;;;;;;4975185;28;20032;-96
2023/06/30 03:51:08;;;;;;;8.32;3.80;;;;;;;;;;4987493;28;20067;-96
2023/06/30 03:53:48;;;;;;;16.77;4.63;;;;;;;;;;4992957;28;20059;-96
2023/06/30 03:56:15;;;;;;;11.05;4.00;;;;;;;;;;4989295;28;20030;-96
2023/06/30 03:59:14;;;;;;;17.40;4.60;;;;;;;;;;4995148;28;20153;-96
2023/06/30 04:01:41;;;;;;;15.70;4.38;;;;;;;;;;4989914;28;20120;-95
2023/06/30 04:04:10;;;;;;;13.85;3.85;;;;;;;;;;4988327;28;20040;-96
2023/06/30 04:06:44;;;;;;;18.50;4.32;;;;;;;;;;5005819;28;20026;-96
2023/06/30 04:09:13;;;;;;;12.65;3.83;;;;;;;;;;4975243;28;20049;-95
2023/06/30 04:11:40;;;;;;;13.60;3.65;;;;;;;;;;4993934;28;20026;-95
2023/06/30 04:14:06;;;;;;;9.45;3.58;;;;;;;;;;4969030;28;20046;-96
2023/06/30 04:16:32;;;;;;;6.07;3.92;;;;;;;;;;4977381;28;20417;-96
2023/06/30 04:18:59;;;;;;;11.45;4.07;;;;;;;;;;4978622;28;20048;-95
2023/06/30 04:21:47;;;;;;;16.05;4.30;;;;;;;;;;4977361;28;20037;-96
2023/06/30 04:24:12;;;;;;;19.17;4.10;;;;;;;;;;5010895;28;20034;-96
2023/06/30 04:26:40;;;;;;;22.85;3.95;;;;;;;;;;4969436;28;20160;-95
2023/06/30 04:29:06;;;;;;;18.45;3.67;;;;;;;;;;4972078;28;20039;-96
2023/06/30 04:31:48;;;;;;;16.58;4.38;;;;;;;;;;4995534;28;20033;-96
2023/06/30 04:34:15;;;;;;;11.13;3.67;;;;;;;;;;4993305;28;20442;-95
2023/06/30 04:36:54;;;;;;;7.85;3.45;;;;;;;;;;4974884;28;20041;-91
2023/06/30 04:39:21;;;;;;;13.93;3.95;;;;;;;;;;4973229;28;20074;-95
2023/06/30 04:41:48;;;;;;;7.43;3.67;;;;;;;;;;4977331;28;20515;-95
2023/06/30 04:44:20;;;;;;;13.65;3.40;;;;;;;;;;4973946;28;20030;-96
2023/06/30 04:46:47;;;;;;;12.13;4.20;;;;;;;;;;4986650;28;22057;-95
2023/06/30 04:49:14;;;;;;;12.27;3.55;;;;;;;;;;4983271;28;20057;-96
2023/06/30 04:51:49;;;;;;;10.88;3.38;;;;;;;;;;4975270;28;20057;-96
2023/06/30 04:54:19;;;;;;;7.50;3.10;;;;;;;;;;4976566;28;20057;-96
2023/06/30 04:56:45;;;;;;;13.25;3.15;;;;;;;;;;4974724;28;20097;-96
2023/06/30 04:59:15;;;;;;;6.65;2.70;;;;;;;;;;4999952;28;20042;-96
2023/06/30 05:02:08;;;;;;;12.55;3.03;;;;;;;;;;4970192;28;20038;-94
2023/06/30 05:05:05;;;;;;;16.08;3.75;;;;;;;;;;4904293;29;20072;-96
2023/06/30 05:07:41;;;;;;;16.48;2.97;;;;;;;;;;4989905;28;21202;-96
2023/06/30 05:10:07;;;;;;;13.18;2.70;;;;;;;;;;5003793;28;20100;-96
2023/06/30 05:12:47;;;;;;;;;;;;;;;;;;;;;
2023/06/30 05:15:33;;;;;;;;;;;;;;;;;;;;;
2023/06/30 05:18:00;;;;;;;8.05;2.58;;;;;;;;;;5008589;28;20117;-92
2023/06/30 05:20:45;;;;;;;16.48;2.78;;;;;;;;;;4979528;28;20098;-92
2023/06/30 05:23:38;;;;;;;5.85;2.75;;;;;;;;;;4999054;28;20034;-93
2023/06/30 05:26:43;;;;;;;11.85;2.25;;;;;;;;;;4994491;23;20548;-93
2023/06/30 05:29:26;;;;;;;10.23;2.65;;;;;;;;;;4978371;28;20045;-93
2023/06/30 05:32:20;;;;;;;16.48;3.05;;;;;;;;;;4971488;28;20538;-92
2023/06/30 05:34:50;;;;;;;10.40;2.63;;;;;;;;;;4970533;28;20034;-93
2023/06/30 05:37:21;;;;;;;11.60;2.80;;;;;;;;;;4985576;28;20623;-93
2023/06/30 05:39:50;;;;;;;13.93;2.70;;;;;;;;;;4963867;28;20038;-93
2023/06/30 05:42:26;;;;;;;6.78;2.63;;;;;;;;;;4977369;28;20053;-93
2023/06/30 05:47:46;;;;;;;5.53;2.40;;;;;;;;;;4992147;28;19995;-94
2023/06/30 05:50:17;;;;;;;6.50;2.30;;;;;;;;;;4968273;28;20042;-94
2023/06/30 05:52:54;;;;;;;4.43;2.30;;;;;;;;;;4970792;28;20442;-94
2023/06/30 05:55:33;;;;;;;12.00;2.58;;;;;;;;;;4985167;28;20039;-93
2023/06/30 05:58:28;;;;;;;;;;;;;;;;;;;;;
2023/06/30 06:01:01;;;;;;;11.93;2.28;;;;;;;;;;4999725;28;20102;-95
2023/06/30 06:03:30;;;;;;;3.90;2.10;;;;;;;;;;4960135;28;20088;-94
2023/06/30 06:06:07;;;;;;;6.88;3.03;;;;;;;;;;4973231;28;20057;-93
2023/06/30 06:08:33;;;;;;;9.32;2.15;;;;;;;;;;4979855;28;20121;-94
2023/06/30 06:11:02;;;;;;;12.43;2.65;;;;;;;;;;4954599;28;20030;-93
2023/06/30 06:13:54;;;;;;;12.77;3.28;;;;;;;;;;4972381;28;20062;-93
2023/06/30 06:16:24;;;;;;;7.50;2.30;;;;;;;;;;4981014;28;20030;-92
2023/06/30 06:18:50;;;;;;;7.75;2.67;;;;;;;;;;4979171;28;20489;-92
2023/06/30 06:21:17;;;;;;;14.52;2.72;;;;;;;;;;4953315;28;20042;-92
2023/06/30 06:23:44;;;;;;;7.07;2.22;;;;;;;;;;4968418;28;20053;-90
2023/06/30 06:26:10;;;;;;;6.40;2.33;;;;;;;;;;4958741;28;20034;-91
2023/06/30 06:28:39;;;;;;;2.92;1.75;;;;;;;;;;4954589;28;20045;-93
2023/06/30 06:31:06;;;;;;;7.75;2.10;;;;;;;;;;4956144;28;20058;-93
2023/06/30 06:33:32;;;;;;;6.22;2.25;;;;;;;;;;4957012;28;20042;-94
2023/06/30 06:36:14;;;;;;;10.80;2.72;;;;;;;;;;4952962;28;20038;-93
2023/06/30 06:38:48;;;;;;;8.60;2.15;;;;;;;;;;4969992;28;20113;-93
2023/06/30 06:41:14;;;;;;;2.90;1.70;;;;;;;;;;4971195;28;20034;-93
2023/06/30 06:43:51;;;;;;;10.23;2.15;;;;;;;;;;4985787;28;20074;-93
2023/06/30 06:46:18;;;;;;;4.10;2.10;;;;;;;;;;4954049;28;20033;-92
2023/06/30 06:48:47;;;;;;;5.40;1.70;;;;;;;;;;4968028;28;20569;-92
2023/06/30 06:51:13;;;;;;;4.70;1.88;;;;;;;;;;4989688;28;20026;-93
2023/06/30 06:53:39;;;;;;;4.65;1.70;;;;;;;;;;4978320;28;20034;-94
2023/06/30 06:56:09;;;;;;;13.63;3.42;;;;;;;;;;4957990;28;20378;-93
2023/06/30 06:58:36;;;;;;;2.88;1.70;;;;;;;;;;4952934;28;20034;-94
2023/06/30 07:01:02;;;;;;;10.63;2.08;;;;;;;;;;4969256;28;20034;-94
2023/06/30 07:03:29;;;;;;;9.18;1.90;;;;;;;;;;4982256;28;21314;-92
2023/06/30 07:05:57;;;;;;;3.45;1.30;;;;;;;;;;4950123;28;20129;-92
2023/06/30 07:08:23;;;;;;;4.43;1.40;;;;;;;;;;4969152;28;20022;-93
2023/06/30 07:10:50;;;;;;;6.55;1.55;;;;;;;;;;4968124;28;20482;-92
2023/06/30 07:13:17;;;;;;;13.15;1.85;;;;;;;;;;4965540;28;20084;-93
2023/06/30 07:15:56;;;;;;;5.05;1.60;;;;;;;;;;4970088;28;20035;-92
2023/06/30 07:18:35;;;;;;;8.25;2.83;;;;;;;;;;4959759;28;20038;-93
2023/06/30 07:21:02;;;;;;;5.68;2.97;;;;;;;;;;4964923;28;20216;-93
2023/06/30 07:23:32;;;;;;;10.70;3.55;;;;;;;;;;4952370;28;20031;-92
2023/06/30 07:26:05;;;;;;;5.43;1.65;;;;;;;;;;4973176;28;20576;-93
2023/06/30 07:28:47;;;;;;;142.43;100.22;;;;;;;;;;4988853;28;20049;-93
2023/06/30 07:31:14;;;;;;;7.88;4.43;;;;;;;;;;4972370;28;20204;-93
2023/06/30 07:33:43;;;;;;;6.50;2.50;;;;;;;;;;4957633;28;20097;-93
2023/06/30 07:36:16;;;;;;;3.83;1.48;;;;;;;;;;4956958;28;20045;-93
2023/06/30 07:38:43;;;;;;;7.82;1.67;;;;;;;;;;4955182;28;20047;-93
2023/06/30 07:41:09;;;;;;;25.63;2.00;;;;;;;;;;4979595;28;20045;-93
2023/06/30 07:43:43;;;;;;;3.28;1.27;;;;;;;;;;4958947;28;20042;-94
2023/06/30 07:46:11;;;;;;;6.82;1.13;;;;;;;;;;4962892;28;20038;-94
2023/06/30 07:48:38;;;;;;;12.07;1.90;;;;;;;;;;4959682;28;20162;-93
2023/06/30 07:51:04;;;;;;;3.28;1.25;;;;;;;;;;4976335;28;20035;-94
2023/06/30 07:53:44;;;;;;;2.65;1.08;;;;;;;;;;4960002;28;20040;-94
2023/06/30 07:56:19;;;;;;;5.05;1.55;;;;;;;;;;4995464;28;20483;-94
2023/06/30 07:58:56;;;;;;;8.23;1.35;;;;;;;;;;4977205;28;20246;-94
2023/06/30 08:01:55;;;;;;;3.58;1.20;;;;;;;;;;4987840;28;20057;-95
2023/06/30 08:04:22;;;;;;;4.15;1.27;;;;;;;;;;4944337;28;20347;-94
2023/06/30 08:06:55;;;;;;;8.15;1.20;;;;;;;;;;4977867;28;21318;-94
2023/06/30 08:09:27;;;;;;;4.82;1.35;;;;;;;;;;4961365;28;20034;-94
2023/06/30 08:12:09;;;;;;;3.38;1.02;;;;;;;;;;4960631;28;20038;-94
2023/06/30 08:14:42;;;;;;;3.30;1.20;;;;;;;;;;4968003;28;20054;-94
2023/06/30 08:17:39;;;;;;;5.93;1.08;;;;;;;;;;4958455;28;20045;-94
2023/06/30 08:20:09;;;;;;;;;;;;;;;;;;4962014;28;20073;-94
2023/06/30 08:22:35;;;;;;;6.47;1.60;;;;;;;;;;4974795;28;19961;-94
2023/06/30 08:25:07;;;;;;;4.10;1.42;;;;;;;;;;4970759;28;20042;-95
2023/06/30 08:33:52;;;;;;;4.30;1.42;;;;;;;;;;4960617;28;20057;-94
2023/06/30 08:42:53;;;;;;;;;;;;;;;;;;;;;
2023/06/30 08:48:30;;;;;;;5.00;1.55;;;;;;;;;;4866424;29;20065;-94
2023/06/30 08:51:04;;;;;;;3.05;1.25;;;;;;;;;;4921163;29;20039;-94
2023/06/30 08:53:44;;;;;;;6.78;1.45;;;;;;;;;;4924103;29;20064;-95
2023/06/30 09:00:14;;;;;;;3.25;1.27;;;;;;;;;;4910428;29;20035;-95
2023/06/30 09:06:24;;;;;;;2.42;1.27;;;;;;;;;;4869143;29;20031;-94
2023/06/30 09:09:09;;;;;;;5.30;1.50;;;;;;;;;;4846646;29;20106;-94
2023/06/30 09:11:45;;;;;;;5.38;1.60;;;;;;;;;;4809832;29;20047;-94
2023/06/30 09:14:15;;;;;;;8.50;1.40;;;;;;;;;;4804103;29;20046;-95
2023/06/30 09:16:41;;;;;;;6.68;1.60;;;;;;;;;;4786855;29;20061;-94
2023/06/30 09:19:09;;;;;;;3.88;1.35;;;;;;;;;;4809879;29;20047;-95
2023/06/30 09:22:00;;;;;;;6.45;2.72;;;;;;;;;;4809489;29;20054;-93
2023/06/30 09:27:34;;;;;;;3.50;1.50;;;;;;;;;;4803984;29;20050;-93
2023/06/30 09:30:42;;;;;;;3.00;1.05;;;;;;;;;;4820109;29;20053;-93
2023/06/30 09:33:54;;;;;;;5.68;1.33;;;;;;;;;;4840433;29;20132;-94
2023/06/30 09:37:10;;;;;;;;;;;;;;;;;;;;;
2023/06/30 09:39:41;;;;;;;4.40;1.80;;;;;;;;;;4846910;29;20037;-94
2023/06/30 09:42:21;;;;;;;5.35;1.75;;;;;;;;;;4864644;29;20051;-93
2023/06/30 09:44:54;;;;;;;3.88;1.13;;;;;;;;;;4898613;29;20093;-93
2023/06/30 09:50:06;;;;;;;4.72;1.70;;;;;;;;;;4888251;29;20140;-94
2023/06/30 09:52:59;;;;;;;4.47;1.20;;;;;;;;;;4893583;29;20029;-94
2023/06/30 09:55:28;;;;;;;8.15;1.25;;;;;;;;;;4866113;29;20045;-94
2023/06/30 09:58:37;;;;;;;;;;;;;;;;;;;;;
2023/06/30 10:01:04;;;;;;;2.40;1.00;;;;;;;;;;4921759;29;20135;-94
2023/06/30 10:03:30;;;;;;;3.40;1.00;;;;;;;;;;4930645;29;20096;-94
2023/06/30 10:06:25;;;;;;;6.93;1.60;;;;;;;;;;4954064;28;20050;-94
2023/06/30 10:08:57;;;;;;;2.67;1.00;;;;;;;;;;4947373;29;20040;-94
2023/06/30 10:11:47;;;;;;;6.68;1.17;;;;;;;;;;4977327;28;20026;-94
2023/06/30 10:14:18;;;;;;;6.63;1.23;;;;;;;;;;4963711;28;20098;-94
2023/06/30 10:17:16;;;;;;;3.20;1.35;;;;;;;;;;4964661;28;20222;-94
2023/06/30 10:19:55;;;;;;;1.88;1.20;;;;;;;;;;4980094;28;20203;-94
2023/06/30 10:22:21;;;;;;;6.10;1.73;;;;;;;;;;4963056;28;20038;-94
2023/06/30 10:24:51;;;;;;;3.70;1.30;;;;;;;;;;4959880;28;20027;-95
2023/06/30 10:27:20;;;;;;;6.75;1.10;;;;;;;;;;4946378;28;20050;-94
2023/06/30 10:29:54;;;;;;;3.72;1.35;;;;;;;;;;4976125;28;20042;-94
2023/06/30 10:32:21;;;;;;;1.98;0.90;;;;;;;;;;4959912;28;20214;-94
2023/06/30 10:35:14;;;;;;;6.15;1.23;;;;;;;;;;4963083;28;20035;-94
2023/06/30 10:37:53;;;;;;;4.93;1.60;;;;;;;;;;4936895;29;20047;-94
2023/06/30 10:40:28;;;;;;;3.75;1.55;;;;;;;;;;4979820;28;20038;-94
2023/06/30 10:43:28;;;;;;;4.78;1.45;;;;;;;;;;5000353;28;20035;-94
2023/06/30 10:46:07;;;;;;;6.45;1.80;;;;;;;;;;5000137;28;20038;-93
2023/06/30 10:48:43;;;;;;;8.30;1.77;;;;;;;;;;4987889;28;20030;-93
2023/06/30 10:51:16;;;;;;;7.93;1.50;;;;;;;;;;4968790;28;20035;-93
2023/06/30 10:54:08;;;;;;;4.65;1.30;;;;;;;;;;4982419;28;20037;-93
2023/06/30 10:56:51;;;;;;;6.78;1.35;;;;;;;;;;4971878;28;20046;-93
2023/06/30 10:59:57;;;;;;;2.15;1.35;;;;;;;;;;4966481;28;20470;-94
2023/06/30 11:02:22;;;;;;;12.75;1.77;;;;;;;;;;4978952;28;20043;-93
2023/06/30 11:05:13;;;;;;;2.45;1.42;;;;;;;;;;4975816;28;20042;-93
2023/06/30 11:07:39;;;;;;;3.60;1.30;;;;;;;;;;4940774;28;20156;-93
2023/06/30 11:10:06;;;;;;;7.00;1.38;;;;;;;;;;4958468;28;20471;-92
2023/06/30 11:12:51;;;;;;;5.22;1.40;;;;;;;;;;4976519;28;20042;-91
2023/06/30 11:15:42;;;;;;;4.15;1.42;;;;;;;;;;4998867;28;20038;-93
2023/06/30 11:18:24;;;;;;;6.03;1.88;;;;;;;;;;4990390;28;20027;-93
2023/06/30 11:21:13;;;;;;;3.47;1.17;;;;;;;;;;4974836;28;20034;-93
2023/06/30 11:23:45;;;;;;;4.68;1.77;;;;;;;;;;4971260;28;20030;-93
2023/06/30 11:26:20;;;;;;;5.00;1.65;;;;;;;;;;4971616;28;20403;-93
2023/06/30 11:32:32;;;;;;;2.75;1.30;;;;;;;;;;4979062;28;20030;-93
2023/06/30 11:34:56;;;;;;;;;;;;;;;;;;;;;
2023/06/30 11:37:26;;;;;;;9.65;1.40;;;;;;;;;;4999473;28;20673;-94
2023/06/30 11:40:47;;;;;;;6.03;1.55;;;;;;;;;;5004193;28;20067;-93
2023/06/30 11:43:23;;;;;;;;;;;;;;;;;;;;;
2023/06/30 11:46:37;;;;;;;;;;;;;;;;;;;;;
2023/06/30 11:49:11;;;;;;;6.25;1.50;;;;;;;;;;4964920;28;20035;-93
2023/06/30 11:51:37;;;;;;;1.65;1.15;;;;;;;;;;4944899;28;20031;-93
2023/06/30 11:54:06;;;;;;;3.45;1.70;;;;;;;;;;4928328;29;20055;-93
2023/06/30 11:56:55;;;;;;;2.63;1.50;;;;;;;;;;4944636;28;20039;-92
2023/06/30 12:02:48;;;;;;;3.72;1.30;;;;;;;;;;4879692;29;20048;-93
2023/06/30 12:06:02;;;;;;;2.42;1.48;;;;;;;;;;4960650;28;20038;-93
2023/06/30 12:08:38;;;;;;;3.42;1.30;;;;;;;;;;4924306;28;20039;-95
2023/06/30 12:14:53;;;;;;;6.38;1.70;;;;;;;;;;4893905;29;20059;-94
2023/06/30 12:18:01;;;;;;;;;;;;;;;;;;;;;
2023/06/30 12:27:29;;;;;;;5.68;1.60;;;;;;;;;;4996081;28;20030;-94
2023/06/30 12:33:53;;;;;;;3.72;1.58;;;;;;;;;;4956348;28;20071;-93
2023/06/30 12:37:07;;;;;;;5.18;1.42;;;;;;;;;;4938261;29;20560;-94
2023/06/30 12:40:22;;;;;;;;;;;;;;;;;;;;;
2023/06/30 12:49:37;;;;;;;6.35;1.73;;;;;;;;;;4925930;29;20043;-92
2023/06/30 12:52:13;;;;;;;7.07;1.85;;;;;;;;;;4908704;29;20116;-93
2023/06/30 12:54:41;;;;;;;4.00;1.75;;;;;;;;;;4912879;29;20024;-95
2023/06/30 12:57:10;;;;;;;8.10;1.83;;;;;;;;;;4911402;29;20080;-94
2023/06/30 12:59:40;;;;;;;3.05;1.75;;;;;;;;;;4900422;29;20117;-92
2023/06/30 13:06:06;;;;;;;5.03;1.88;;;;;;;;;;4930083;29;20043;-93
2023/06/30 13:08:32;;;;;;;6.05;1.80;;;;;;;;;;4912285;29;20052;-94
2023/06/30 13:11:05;;;;;;;3.95;1.70;;;;;;;;;;4982026;28;20106;-93
2023/06/30 13:13:34;;;;;;;3.72;1.58;;;;;;;;;;4962604;28;20042;-94
2023/06/30 13:16:12;;;;;;;17.67;2.55;;;;;;;;;;4975963;28;20501;-93
2023/06/30 13:18:49;;;;;;;3.88;1.73;;;;;;;;;;4967621;28;20046;-93
2023/06/30 13:21:38;;;;;;;2.22;1.40;;;;;;;;;;4976542;28;20082;-93
2023/06/30 13:24:15;;;;;;;3.67;1.77;;;;;;;;;;4969034;28;20042;-92
2023/06/30 13:26:52;;;;;;;;;;;;;;;;;;;;;
2023/06/30 13:29:29;;;;;;;9.27;1.92;;;;;;;;;;4963160;28;20113;-93
2023/06/30 13:32:38;;;;;;;2.13;1.58;;;;;;;;;;4963887;28;20577;-94
2023/06/30 13:37:50;;;;;;;3.67;1.48;;;;;;;;;;4915382;29;20048;-92
2023/06/30 13:40:31;;;;;;;9.13;2.08;;;;;;;;;;4935971;28;20123;-93
2023/06/30 13:43:10;;;;;;;;;;;;;;;;;;;;;
2023/06/30 13:45:39;;;;;;;2.50;2.05;;;;;;;;;;4974077;28;20103;-93
2023/06/30 13:48:19;;;;;;;5.07;2.10;;;;;;;;;;4961337;28;20090;-93
2023/06/30 13:51:13;;;;;;;;;;;;;;;;;;;;;
2023/06/30 13:54:09;;;;;;;5.25;1.88;;;;;;;;;;4984216;28;20042;-93
2023/06/30 13:56:52;;;;;;;;;;;;;;;;;;;;;
2023/06/30 13:59:43;;;;;;;8.27;2.17;;;;;;;;;;5001042;28;20111;-93
2023/06/30 14:02:13;;;;;;;4.20;1.60;;;;;;;;;;4979358;28;20049;-91
2023/06/30 14:05:04;;;;;;;6.53;2.13;;;;;;;;;;4978566;28;20034;-93
2023/06/30 14:07:35;;;;;;;4.28;1.98;;;;;;;;;;4990627;28;20114;-93
2023/06/30 14:10:19;;;;;;;2.10;1.42;;;;;;;;;;4974333;28;20056;-94
2023/06/30 14:13:00;;;;;;;6.88;2.05;;;;;;;;;;4975308;28;20066;-93
2023/06/30 14:15:30;;;;;;;7.72;1.90;;;;;;;;;;4960222;28;20042;-93
2023/06/30 14:18:00;;;;;;;3.30;1.50;;;;;;;;;;4994445;28;20045;-95
2023/06/30 14:20:26;;;;;;;3.90;2.22;;;;;;;;;;4961576;28;20704;-93
2023/06/30 14:23:00;;;;;;;8.93;1.80;;;;;;;;;;4960413;28;20031;-92
2023/06/30 14:25:40;;;;;;;8.13;2.35;;;;;;;;;;4991270;28;20034;-93
2023/06/30 14:28:16;;;;;;;5.90;1.98;;;;;;;;;;4960159;28;20041;-93
2023/06/30 14:30:50;;;;;;;3.60;2.10;;;;;;;;;;4978671;28;20038;-94
2023/06/30 14:33:16;;;;;;;3.75;1.90;;;;;;;;;;4976385;28;20417;-93
2023/06/30 14:35:43;;;;;;;4.53;1.90;;;;;;;;;;4959121;28;20044;-93
2023/06/30 14:38:12;;;;;;;6.50;1.80;;;;;;;;;;4959637;28;20403;-93
2023/06/30 14:40:41;;;;;;;4.53;1.67;;;;;;;;;;4963676;28;20128;-94
2023/06/30 14:43:10;;;;;;;3.70;1.63;;;;;;;;;;4963302;28;20041;-93
2023/06/30 14:48:40;;;;;;;;;;;;;;;;;;;;;
2023/06/30 14:51:12;;;;;;;4.07;1.90;;;;;;;;;;4989845;28;20039;-94
2023/06/30 14:53:41;;;;;;;7.70;2.10;;;;;;;;;;4962249;28;20125;-93
2023/06/30 14:56:14;;;;;;;5.13;1.60;;;;;;;;;;4984847;28;20042;-92
2023/06/30 14:58:43;;;;;;;3.60;1.50;;;;;;;;;;4954670;28;20070;-94
2023/06/30 15:01:09;;;;;;;2.67;1.50;;;;;;;;;;4961399;28;20034;-94
2023/06/30 15:03:41;;;;;;;9.38;2.10;;;;;;;;;;4972686;28;20038;-94
2023/06/30 15:06:33;;;;;;;5.82;1.67;;;;;;;;;;4978190;28;20027;-93
2023/06/30 15:09:09;;;;;;;5.22;1.75;;;;;;;;;;4996737;28;20054;-93
2023/06/30 15:11:37;;;;;;;4.20;1.52;;;;;;;;;;4982000;28;20430;-93
2023/06/30 15:14:05;;;;;;;5.53;2.28;;;;;;;;;;4966764;28;20522;-93
2023/06/30 15:16:45;;;;;;;7.30;2.08;;;;;;;;;;4980358;28;20038;-91
2023/06/30 15:19:51;;;;;;;;;;;;;;;;;;;;;
2023/06/30 15:22:29;;;;;;;3.38;1.75;;;;;;;;;;4944421;28;20114;-91
2023/06/30 15:25:01;;;;;;;5.90;2.38;;;;;;;;;;4963095;28;20034;-92
2023/06/30 15:27:34;;;;;;;5.55;2.00;;;;;;;;;;4999595;28;20696;-92
2023/06/30 15:30:34;;;;;;;;;;;;;;;;;;;;;
2023/06/30 15:32:58;;;;;;;7.07;2.10;;;;;;;;;;4968105;28;20666;-90
2023/06/30 15:35:56;;;;;;;5.95;2.00;;;;;;;;;;4989255;28;20031;-90
2023/06/30 15:38:37;;;;;;;5.07;2.55;;;;;;;;;;4993318;28;20034;-90
2023/06/30 15:41:13;;;;;;;4.25;2.38;;;;;;;;;;4963419;28;20046;-90
2023/06/30 15:43:40;;;;;;;;;;;;;;;;;;4973362;28;20030;-92
2023/06/30 15:46:07;;;;;;;3.53;1.77;;;;;;;;;;4981385;28;19966;-91
2023/06/30 15:49:04;;;;;;;;;;;;;;;;;;;;;
2023/06/30 15:51:19;;;;;;;4.43;2.63;;;;;;;;;;4953842;28;20050;-91
2023/06/30 15:54:00;;;;;;;;;;;;;;;;;;;;;
2023/06/30 15:57:01;;;;;;;4.53;2.65;;;;;;;;;;4996870;28;20029;-94
2023/06/30 15:59:27;;;;;;;3.15;2.00;;;;;;;;;;4983123;28;20041;-91
2023/06/30 16:01:54;;;;;;;6.93;2.50;;;;;;;;;;4966893;28;20409;-92
2023/06/30 16:04:29;;;;;;;6.30;2.30;;;;;;;;;;4977001;28;20030;-91
2023/06/30 16:07:07;;;;;;;;;;;;;;;;;;;;;
2023/06/30 16:09:53;;;;;;;11.48;2.50;;;;;;;;;;4994856;28;20134;-91
2023/06/30 16:12:29;;;;;;;;;;;;;;;;;;4984892;28;20049;-90
2023/06/30 16:14:55;;;;;;;3.58;2.35;;;;;;;;;;5002100;28;19980;-91
2023/06/30 16:17:49;;;;;;;6.45;2.72;;;;;;;;;;4985007;28;20042;-93
2023/06/30 16:20:19;;;;;;;12.02;4.47;;;;;;;;;;4986911;28;20027;-90
2023/06/30 16:22:49;;;;;;;4.53;2.75;;;;;;;;;;4965723;28;20046;-91
2023/06/30 16:25:33;;;;;;;6.72;3.10;;;;;;;;;;4983611;28;20027;-92
2023/06/30 16:31:45;;;;;;;9.32;4.45;;;;;;;;;;4909963;28;20033;-92
2023/06/30 16:35:23;;;;;;;10.55;4.25;;;;;;;;;;4864487;28;20500;-94
2023/06/30 16:37:41;;;;;;;7.55;4.25;;;;;;;;;;4859828;29;20033;-93
2023/06/30 16:40:26;;;;;;;5.50;3.60;;;;;;;;;;4876223;29;20033;-94
2023/06/30 16:43:20;;;;;;;4.43;3.28;;;;;;;;;;4810712;29;20027;-92
2023/06/30 16:46:06;;;;;;;;;;;;;;;;;;;;;
2023/06/30 16:51:31;;;;;;;4.63;2.50;;;;;;;;;;4867850;29;20039;-90
2023/06/30 16:54:39;;;;;;;4.20;2.97;;;;;;;;;;4871140;29;20064;-92
2023/06/30 16:57:06;;;;;;;6.18;2.90;;;;;;;;;;4935200;29;20039;-91
2023/06/30 17:00:01;;;;;;;;;;;;;;;;;;;;;
2023/06/30 17:02:27;;;;;;;10.40;2.92;;;;;;;;;;4936938;29;20354;-90
2023/06/30 17:05:20;;;;;;;7.78;3.10;;;;;;;;;;4923111;29;20047;-89
2023/06/30 17:07:53;;;;;;;10.48;3.28;;;;;;;;;;4940252;29;20047;-91